Time;durP1;ratioP1;P1;durP2;ratioP2;P2;SDS_P1;SDS_P2;PMS_P1;PMS_P2;Temp;Humidity;BMP_temperature;BMP_pressure;BME280_temperature;BME280_humidity;BME280_pressure;Samples;Min_cycle;Max_cycle;Signal;HPM_P1;HPM_P2
2022/06/12 00:00:30;;;;;;;;;14.00;13.33;;;;;20.79;71.01;100990.97;5056468;28;45495;-72
2022/06/12 00:02:59;;;;;;;;;13.67;13.00;;;;;20.78;71.69;100981.22;5056522;28;45272;-71
2022/06/12 00:05:27;;;;;;;;;16.67;15.00;;;;;20.79;71.51;100990.03;5056680;28;45408;-72
2022/06/12 00:07:53;;;;;;;;;12.67;12.00;;;;;20.63;71.50;100968.00;5055480;28;46199;-71
2022/06/12 00:10:19;;;;;;;;;12.33;12.00;;;;;20.58;71.48;100967.13;5057831;28;45308;-71
2022/06/12 00:12:46;;;;;;;;;14.33;13.00;;;;;20.73;71.77;100996.28;5058378;28;45423;-71
2022/06/12 00:15:24;;;;;;;;;12.00;11.67;;;;;20.58;71.89;100983.94;5058536;28;45472;-72
2022/06/12 00:17:50;;;;;;;;;11.33;10.67;;;;;20.77;71.30;101029.91;5057792;28;45612;-72
2022/06/12 00:20:16;;;;;;;;;13.33;12.67;;;;;20.77;71.46;101029.91;5056622;28;45521;-72
2022/06/12 00:22:43;;;;;;;;;13.33;12.33;;;;;20.77;71.50;101040.53;5058157;28;45399;-72
2022/06/12 00:25:12;;;;;;;;;12.67;11.33;;;;;20.76;71.44;101052.03;5058181;28;45354;-71
2022/06/12 00:27:38;;;;;;;;;13.67;12.00;;;;;20.75;71.23;101060.91;5057768;28;46208;-71
2022/06/12 00:30:07;;;;;;;;;14.00;12.00;;;;;20.68;72.08;101051.16;5057694;28;45437;-71
2022/06/12 00:32:32;;;;;;;;;12.67;11.33;;;;;20.68;71.76;101056.47;5057901;28;45480;-71
2022/06/12 00:34:58;;;;;;;;;12.33;12.33;;;;;20.48;71.94;101034.41;5057896;28;45423;-72
2022/06/12 00:37:25;;;;;;;;;12.00;10.67;;;;;20.61;71.86;101055.63;5057752;28;45864;-72
2022/06/12 00:39:53;;;;;;;;;15.67;12.33;;;;;20.57;71.31;101047.63;5057738;28;45366;-72
2022/06/12 00:42:33;;;;;;;;;11.67;10.00;;;;;20.46;71.18;101026.44;5057797;28;45426;-72
2022/06/12 00:45:01;;;;;;;;;10.33;10.00;;;;;20.46;71.32;101029.97;5057819;28;45393;-72
2022/06/12 00:47:28;;;;;;;;;12.00;12.00;;;;;20.43;71.67;101015.81;5057453;28;45551;-72
2022/06/12 00:50:05;;;;;;;;;14.33;14.00;;;;;20.19;71.16;100966.38;5057433;28;45445;-72
2022/06/12 00:52:45;;;;;;;;;11.33;11.33;;;;;20.38;71.00;100996.41;5057299;28;45382;-72
2022/06/12 00:55:27;;;;;;;;;12.67;12.67;;;;;20.34;71.45;100990.22;5057344;28;45533;-72
2022/06/12 00:57:57;;;;;;;;;15.00;12.33;;;;;20.27;71.83;100969.88;5057037;28;46065;-72
2022/06/12 01:00:23;;;;;;;;;12.33;11.33;;;;;19.98;71.73;100909.00;5057119;28;45495;-72
2022/06/12 01:02:49;;;;;;;;;8.33;8.33;;;;;20.14;70.92;100918.66;5057217;28;45426;-72
2022/06/12 01:08:07;;;;;;;;;10.67;10.33;;;;;20.10;70.99;100935.47;5025767;28;45942;-72
2022/06/12 01:10:37;;;;;;;;;11.00;9.67;;;;;20.06;70.78;100894.81;5057371;28;45486;-72
2022/06/12 01:13:10;;;;;;;;;14.00;12.00;;;;;20.09;71.26;100888.59;5057320;28;45493;-73
2022/06/12 01:15:43;;;;;;;;;13.00;12.33;;;;;19.67;71.33;100798.56;5057531;28;45485;-72
2022/06/12 01:18:13;;;;;;;;;12.67;10.33;;;;;20.09;71.45;100842.63;5056848;28;46108;-72
2022/06/12 01:20:53;;;;;;;;;12.33;12.00;;;;;20.05;71.22;100810.84;5060353;28;45501;-72
2022/06/12 01:23:25;;;;;;;;;12.33;11.33;;;;;19.98;72.02;100795.84;5060919;28;45437;-72
2022/06/12 01:26:00;;;;;;;;;10.67;9.67;;;;;19.96;72.15;100804.69;5060953;28;45529;-72
2022/06/12 01:28:45;;;;;;;;;12.00;9.00;;;;;19.97;72.21;100833.84;5060529;28;45433;-72
2022/06/12 01:31:19;;;;;;;;;9.67;9.67;;;;;19.79;71.85;100871.91;5060568;28;45398;-72
2022/06/12 01:34:21;;;;;;;;;9.00;8.00;;;;;20.05;71.91;100921.31;5060794;28;45553;-72
2022/06/12 01:37:09;;;;;;;;;9.67;8.33;;;;;20.04;71.52;100893.94;5060957;28;45969;-72
2022/06/12 01:40:20;;;;;;;;;9.00;8.33;;;;;19.88;70.97;100851.56;5060394;28;45375;-72
2022/06/12 01:42:52;;;;;;;;;11.67;9.00;;;;;20.11;71.43;100889.47;5058174;28;45383;-70
2022/06/12 01:45:44;;;;;;;;;8.00;8.00;;;;;20.09;70.96;100867.38;5060723;28;45445;-71
2022/06/12 01:48:32;;;;;;;;;6.33;6.33;;;;;19.82;71.15;100821.53;5060618;28;45444;-71
2022/06/12 01:51:28;;;;;;;;;9.00;8.00;;;;;19.72;71.62;100800.38;5060120;28;45477;-71
2022/06/12 01:54:14;;;;;;;;;12.00;9.67;;;;;19.75;71.44;100817.13;5060033;28;45485;-71
2022/06/12 01:56:48;;;;;;;;;7.33;7.33;;;;;19.63;72.47;100802.13;5060373;28;45545;-72
2022/06/12 01:59:19;;;;;;;;;8.67;8.00;;;;;19.66;72.66;100830.41;5060491;28;45355;-71
2022/06/12 02:02:10;;;;;;;;;8.33;8.00;;;;;19.64;73.03;100814.50;5060051;28;45482;-71
2022/06/12 02:04:53;;;;;;;;;10.00;7.67;;;;;19.63;72.49;100806.53;5059940;28;45294;-71
2022/06/12 02:07:27;;;;;;;;;8.00;7.00;;;;;19.58;72.85;100814.50;5060482;28;45485;-71
2022/06/12 02:10:28;;;;;;;;;9.33;7.67;;;;;19.56;73.04;100812.75;5060349;28;45829;-71
2022/06/12 02:13:12;;;;;;;;;9.67;8.67;;;;;19.52;73.13;100818.94;4997316;28;46104;-71
2022/06/12 02:16:16;;;;;;;;;12.00;8.67;;;;;19.48;73.64;100802.19;5054666;28;45584;-72
2022/06/12 02:18:46;;;;;;;;;8.00;8.00;;;;;19.46;73.64;100806.59;5059743;28;45518;-71
2022/06/12 02:21:37;;;;;;;;;8.00;7.33;;;;;19.43;73.81;100798.66;5059867;28;45461;-73
2022/06/12 02:24:16;;;;;;;;;8.00;8.00;;;;;19.41;73.54;100796.00;5059417;28;46268;-71
2022/06/12 02:26:48;;;;;;;;;7.00;7.00;;;;;19.38;73.86;100801.31;5059568;28;45436;-71
2022/06/12 02:29:20;;;;;;;;;7.00;6.00;;;;;19.35;73.73;100805.72;5059905;28;45412;-71
2022/06/12 02:31:51;;;;;;;;;9.33;8.67;;;;;18.99;73.99;100749.31;5059186;28;45575;-71
2022/06/12 02:34:36;;;;;;;;;9.33;8.67;;;;;19.24;74.06;100792.53;5059663;28;45461;-71
2022/06/12 02:37:23;;;;;;;;;9.67;9.67;;;;;19.28;74.40;100795.16;5059405;28;45437;-70
2022/06/12 02:39:57;;;;;;;;;10.00;9.67;;;;;19.25;74.49;100804.88;5059781;28;45406;-71
2022/06/12 02:42:37;;;;;;;;;9.33;9.33;;;;;19.23;74.58;100790.75;5060246;28;45884;-71
2022/06/12 02:45:10;;;;;;;;;11.33;9.33;;;;;19.19;74.32;100795.16;5059304;28;45406;-71
2022/06/12 02:47:39;;;;;;;;;9.33;9.33;;;;;18.97;73.89;100754.59;5059164;28;45617;-71
2022/06/12 02:50:08;;;;;;;;;10.33;8.33;;;;;19.13;74.06;100794.28;5059359;28;45515;-71
2022/06/12 02:52:48;;;;;;;;;7.67;7.67;;;;;19.08;74.53;100783.72;5059765;28;45514;-71
2022/06/12 02:55:25;;;;;;;;;9.33;8.67;;;;;19.04;74.63;100785.47;5059226;28;45488;-71
2022/06/12 02:58:19;;;;;;;;;7.67;6.67;;;;;17.95;74.25;100602.06;5059536;28;45556;-71
2022/06/12 03:01:05;;;;;;;;;8.67;8.67;;;;;18.94;74.75;100794.31;5059336;28;45472;-71
2022/06/12 03:03:39;;;;;;;;;10.00;10.00;;;;;18.92;75.16;100796.09;5059412;28;45398;-71
2022/06/12 03:06:05;;;;;;;;;9.67;9.00;;;;;18.92;75.24;100822.56;5059151;28;46029;-71
2022/06/12 03:08:36;;;;;;;;;9.33;9.33;;;;;18.97;75.19;100806.66;5058371;28;45250;-71
2022/06/12 03:11:08;;;;;;;;;8.33;8.33;;;;;18.68;75.05;100746.63;5058818;28;45473;-71
2022/06/12 03:13:36;;;;;;;;;10.33;9.67;;;;;18.98;75.19;100788.13;5058945;28;45320;-71
2022/06/12 03:16:08;;;;;;;;;9.67;9.33;;;;;18.93;74.20;100778.44;5058517;28;46129;-71
2022/06/12 03:18:38;;;;;;;;;9.67;9.33;;;;;18.81;75.39;100774.91;5058581;28;45416;-71
2022/06/12 03:21:19;;;;;;;;;9.33;9.33;;;;;17.81;75.80;100616.09;5058578;28;45387;-71
2022/06/12 03:24:07;;;;;;;;;10.33;8.33;;;;;18.75;75.65;100792.53;5058694;28;45256;-71
2022/06/12 03:26:56;;;;;;;;;11.00;8.67;;;;;18.75;75.86;100790.75;5058331;28;45974;-71
2022/06/12 03:29:27;;;;;;;;;11.00;10.67;;;;;18.73;75.98;100792.50;5058722;28;45298;-71
2022/06/12 03:31:56;;;;;;;;;11.00;9.33;;;;;18.73;76.09;100802.22;5058808;28;45492;-71
2022/06/12 03:34:28;;;;;;;;;11.33;11.00;;;;;18.80;75.87;100809.28;5059006;28;45567;-71
2022/06/12 03:37:05;;;;;;;;;9.00;9.00;;;;;18.92;75.65;100808.41;5058612;28;45362;-72
2022/06/12 03:40:00;;;;;;;;;11.67;10.67;;;;;18.98;75.30;100804.03;5058384;28;45414;-72
2022/06/12 03:42:36;;;;;;;;;10.00;8.67;;;;;18.99;74.48;100792.53;5057449;28;45555;-73
2022/06/12 03:45:17;;;;;;;;;8.67;8.67;;;;;19.07;74.64;100800.47;5058371;28;45302;-72
2022/06/12 03:48:06;;;;;;;;;9.67;9.33;;;;;19.12;74.74;100811.06;5057900;28;46121;-73
2022/06/12 03:50:38;;;;;;;;;9.50;9.00;;;;;19.15;74.57;100817.25;5058054;28;45439;-72
2022/06/12 03:53:19;;;;;;;;;12.33;9.33;;;;;19.18;74.31;100830.50;5058309;28;45402;-73
2022/06/12 03:58:55;;;;;;;;;8.67;8.00;;;;;19.25;74.17;100857.84;5054319;28;46002;-72
2022/06/12 04:01:22;;;;;;;;;8.67;8.67;;;;;19.29;73.83;100854.31;5053689;28;45517;-72
2022/06/12 04:03:49;;;;;;;;;8.67;8.67;;;;;19.28;73.86;100853.44;5056076;28;45498;-72
2022/06/12 04:06:22;;;;;;;;;9.33;8.00;;;;;19.04;73.70;100817.25;5056156;28;45884;-72
2022/06/12 04:08:53;;;;;;;;;8.67;7.33;;;;;19.14;73.68;100838.41;5055507;28;45375;-72
2022/06/12 04:11:22;;;;;;;;;7.00;6.00;;;;;19.27;73.91;100845.47;5055927;28;46147;-72
2022/06/12 04:13:49;;;;;;;;;7.67;7.00;;;;;19.28;74.12;100841.97;5056235;28;45308;-72
2022/06/12 04:16:33;;;;;;;;;8.67;7.33;;;;;19.28;74.16;100853.44;5056314;28;45722;-72
2022/06/12 04:19:01;;;;;;;;;10.33;8.00;;;;;19.26;74.17;100843.72;5055523;28;46080;-72
2022/06/12 04:21:59;;;;;;;;;7.00;7.00;;;;;19.34;74.04;100856.94;5056053;28;45533;-72
2022/06/12 04:24:48;;;;;;;;;8.00;7.33;;;;;19.40;74.14;100856.97;5054180;28;45379;-72
2022/06/12 04:27:42;;;;;;;;;7.33;7.00;;;;;19.44;74.02;100861.38;5055197;28;45479;-72
2022/06/12 04:30:13;;;;;;;;;8.67;7.00;;;;;19.46;73.76;100863.13;5052263;28;46162;-72
2022/06/12 04:32:39;;;;;;;;;7.00;7.00;;;;;19.50;73.61;100877.25;5055880;28;45450;-72
2022/06/12 04:35:05;;;;;;;;;9.33;8.00;;;;;19.35;73.73;100849.00;5056079;28;45460;-72
2022/06/12 04:37:32;;;;;;;;;9.00;8.33;;;;;19.46;73.78;100862.25;5056157;28;45601;-72
2022/06/12 04:39:59;;;;;;;;;7.00;6.33;;;;;19.31;73.91;100831.34;5057085;28;45931;-73
2022/06/12 04:42:30;;;;;;;;;9.00;8.00;;;;;19.56;73.87;100879.88;5057422;28;45419;-72
2022/06/12 04:45:00;;;;;;;;;7.00;7.00;;;;;19.60;74.01;100894.91;5057427;28;45566;-72
2022/06/12 04:47:28;;;;;;;;;8.67;7.33;;;;;19.63;73.48;100934.63;5057736;28;45182;-73
2022/06/12 04:49:55;;;;;;;;;7.33;7.33;;;;;19.37;73.48;100867.53;5057285;28;46112;-73
2022/06/12 04:52:26;;;;;;;;;9.00;8.00;;;;;19.66;73.73;100929.34;5056916;28;45389;-73
2022/06/12 04:54:51;;;;;;;;;6.33;6.33;;;;;19.46;73.61;100902.88;5057252;28;45541;-73
2022/06/12 04:57:17;;;;;;;;;10.00;8.00;;;;;19.70;73.31;100946.13;5057571;28;45223;-73
2022/06/12 04:59:45;;;;;;;;;8.67;8.00;;;;;19.72;73.45;100955.00;5057219;28;46064;-73
2022/06/12 05:02:11;;;;;;;;;7.00;7.00;;;;;19.72;73.24;100965.59;5057039;28;45315;-73
2022/06/12 05:04:39;;;;;;;;;7.00;7.00;;;;;19.68;73.14;100985.00;5057084;28;45476;-72
2022/06/12 05:07:07;;;;;;;;;6.67;6.67;;;;;19.75;73.19;100993.84;5057233;28;45520;-73
2022/06/12 05:09:35;;;;;;;;;8.00;6.67;;;;;19.76;73.29;100998.28;5056772;28;46223;-72
2022/06/12 05:12:02;;;;;;;;;10.33;9.00;;;;;19.78;73.10;101000.03;5056920;28;45389;-73
2022/06/12 05:14:28;;;;;;;;;9.33;9.33;;;;;19.63;73.11;100960.25;5057143;28;45524;-72
2022/06/12 05:17:00;;;;;;;;;8.00;7.00;;;;;19.77;72.96;100989.44;5057419;28;45454;-72
2022/06/12 05:19:36;;;;;;;;;9.33;9.33;;;;;19.77;72.78;100997.38;5057225;28;45579;-72
2022/06/12 05:22:03;;;;;;;;;8.67;8.67;;;;;19.75;73.47;101009.75;5056919;28;45318;-72
2022/06/12 05:24:29;;;;;;;;;8.00;8.00;;;;;19.46;73.02;100953.19;5057239;28;45374;-72
2022/06/12 05:26:56;;;;;;;;;7.00;7.00;;;;;19.75;73.06;101001.81;5057446;28;45287;-72
2022/06/12 05:29:25;;;;;;;;;8.33;8.00;;;;;19.64;72.52;100978.81;5056440;28;45302;-72
2022/06/12 05:31:52;;;;;;;;;7.33;7.00;;;;;19.73;73.33;101001.81;5056640;28;45540;-72
2022/06/12 05:34:19;;;;;;;;;11.33;8.00;;;;;19.68;72.64;100983.22;5056770;28;45396;-73
2022/06/12 05:36:45;;;;;;;;;11.67;9.33;;;;;19.72;73.18;100991.22;5056966;28;45343;-72
2022/06/12 05:39:11;;;;;;;;;9.33;8.33;;;;;19.62;72.97;100977.06;5056761;28;46099;-73
2022/06/12 05:41:37;;;;;;;;;11.33;10.00;;;;;19.32;73.11;100931.13;5054607;28;45399;-72
2022/06/12 05:44:04;;;;;;;;;9.00;9.00;;;;;19.58;72.63;100968.22;5054706;28;45547;-72
2022/06/12 05:46:29;;;;;;;;;11.67;10.33;;;;;19.37;73.24;100926.69;5055214;28;45463;-73
2022/06/12 05:48:55;;;;;;;;;11.00;9.00;;;;;19.75;72.59;100991.22;5054753;28;46052;-72
2022/06/12 05:51:21;;;;;;;;;9.00;9.00;;;;;19.75;72.62;100986.78;5054668;28;45644;-72
2022/06/12 05:53:47;;;;;;;;;12.67;11.00;;;;;19.76;72.97;100982.38;5054756;28;45571;-72
2022/06/12 05:56:19;;;;;;;;;13.33;11.33;;;;;19.79;73.16;100977.06;5054819;28;45579;-72
2022/06/12 05:58:45;;;;;;;;;10.67;10.00;;;;;19.83;72.61;100995.59;5054392;28;45575;-72
2022/06/12 06:01:14;;;;;;;;;9.67;9.00;;;;;19.90;72.44;100992.97;5054330;28;45436;-72
2022/06/12 06:03:40;;;;;;;;;11.00;9.67;;;;;19.97;72.29;100997.38;5054144;28;45544;-72
2022/06/12 06:06:07;;;;;;;;;11.00;9.33;;;;;19.97;72.82;100987.63;5055558;28;45445;-73
2022/06/12 06:08:33;;;;;;;;;12.67;11.33;;;;;20.10;74.21;100993.81;5057858;28;46185;-72
2022/06/12 06:10:58;;;;;;;;;9.00;9.00;;;;;19.84;74.23;100938.19;5058057;28;45427;-72
2022/06/12 06:13:24;;;;;;;;;12.00;12.00;;;;;20.19;74.23;100987.59;5057862;28;45465;-72
2022/06/12 06:15:50;;;;;;;;;11.00;11.00;;;;;20.26;73.47;100989.34;5057913;28;45640;-72
2022/06/12 06:18:17;;;;;;;;;11.33;10.67;;;;;20.29;72.66;100984.03;5057852;28;45535;-72
2022/06/12 06:20:44;;;;;;;;;9.67;9.00;;;;;20.28;72.52;100979.63;5057488;28;45428;-72
2022/06/12 06:23:10;;;;;;;;;10.33;10.33;;;;;20.39;73.25;100991.09;5057527;28;45466;-72
2022/06/12 06:25:37;;;;;;;;;11.00;10.33;;;;;20.44;73.37;101009.63;5057960;28;45479;-72
2022/06/12 06:28:04;;;;;;;;;12.33;11.00;;;;;20.48;73.51;101032.63;5055067;28;45447;-72
2022/06/12 06:30:29;;;;;;;;;10.00;8.33;;;;;20.53;73.93;101061.78;5057822;28;45579;-72
2022/06/12 06:32:55;;;;;;;;;10.00;9.00;;;;;20.38;73.86;101068.03;5057701;28;45471;-72
2022/06/12 06:35:22;;;;;;;;;10.33;9.33;;;;;20.46;73.77;101125.50;5057794;28;45495;-73
2022/06/12 06:37:49;;;;;;;;;8.33;7.33;;;;;20.40;73.90;101140.56;5056943;28;45442;-73
2022/06/12 06:40:18;;;;;;;;;9.00;8.33;;;;;20.33;73.77;101137.00;5057073;28;45394;-76
2022/06/12 06:42:44;;;;;;;;;7.00;7.00;;;;;20.11;73.70;101111.41;5057526;28;45316;-72
2022/06/12 06:47:57;;;;;;;;;9.67;9.67;;;;;20.20;73.75;101175.06;5057557;28;45779;-73
2022/06/12 06:50:23;;;;;;;;;11.33;11.00;;;;;20.17;74.45;101186.53;5058088;28;45472;-72
2022/06/12 06:52:50;;;;;;;;;6.33;6.33;;;;;20.14;72.84;101112.28;5057157;28;45466;-72
2022/06/12 06:55:17;;;;;;;;;7.00;6.00;;;;;20.07;73.43;101126.41;5057283;28;45575;-71
2022/06/12 06:57:45;;;;;;;;;9.00;8.33;;;;;20.00;73.59;101161.78;5057060;28;45571;-71
2022/06/12 07:00:15;;;;;;;;;7.67;7.67;;;;;19.94;73.73;101106.97;5057126;28;45516;-72
2022/06/12 07:02:41;;;;;;;;;8.00;8.00;;;;;19.85;74.13;101109.63;5054539;28;45504;-71
2022/06/12 07:05:07;;;;;;;;;7.67;7.00;;;;;19.79;74.42;101091.94;5058447;28;45473;-72
2022/06/12 07:07:34;;;;;;;;;5.00;5.00;;;;;19.47;74.40;101018.53;5057189;28;47335;-74
2022/06/12 07:10:01;;;;;;;;;5.67;5.00;;;;;19.61;75.09;101053.00;5057703;28;45623;-71
2022/06/12 07:12:27;;;;;;;;;4.67;4.67;;;;;19.50;75.12;101041.53;5058083;28;45466;-72
2022/06/12 07:14:52;;;;;;;;;5.00;5.00;;;;;19.39;75.47;101041.50;5057897;28;46160;-71
2022/06/12 07:17:18;;;;;;;;;4.00;3.67;;;;;19.44;75.09;101044.19;5057632;28;45497;-72
2022/06/12 07:19:44;;;;;;;;;4.00;3.67;;;;;19.37;75.35;101040.63;5058469;28;45310;-71
2022/06/12 07:22:10;;;;;;;;;3.67;3.67;;;;;19.43;75.52;101069.75;5058470;28;45418;-71
2022/06/12 07:24:36;;;;;;;;;3.67;3.67;;;;;19.33;74.87;101020.31;5058292;28;45519;-71
2022/06/12 07:27:01;;;;;;;;;4.00;3.00;;;;;19.55;74.56;101055.66;5057945;28;46105;-72
2022/06/12 07:29:27;;;;;;;;;3.00;3.00;;;;;19.61;74.04;101058.31;5058534;28;45469;-71
2022/06/12 07:31:53;;;;;;;;;3.33;3.33;;;;;19.67;74.18;101044.19;5058416;28;45381;-71
2022/06/12 07:34:18;;;;;;;;;2.67;2.67;;;;;19.70;73.81;101044.19;5058349;28;45333;-72
2022/06/12 07:36:47;;;;;;;;;3.00;2.33;;;;;19.38;73.92;100972.66;5056378;28;46036;-72
2022/06/12 07:39:19;;;;;;;;;4.00;3.33;;;;;19.75;73.69;101028.31;5056776;28;45453;-72
2022/06/12 07:41:48;;;;;;;;;4.00;4.00;;;;;19.69;73.46;101002.66;5056311;28;45330;-72
2022/06/12 07:44:16;;;;;;;;;3.00;3.00;;;;;19.67;73.76;101005.31;5057442;28;45411;-72
2022/06/12 07:46:42;;;;;;;;;3.67;3.67;;;;;19.78;73.34;100972.66;5036329;27;46091;-72
2022/06/12 07:49:08;;;;;;;;;2.00;2.00;;;;;19.38;76.99;100938.19;5061108;28;45693;-72
2022/06/12 07:51:34;;;;;;;;;4.67;4.00;;;;;19.49;76.99;100970.84;5057463;28;45530;-72
2022/06/12 07:53:59;;;;;;;;;5.00;4.00;;;;;19.39;74.34;100924.06;5057709;28;45417;-72
2022/06/12 07:56:26;;;;;;;;;3.00;3.00;;;;;19.66;75.29;100939.94;5056975;28;45587;-72
2022/06/12 07:58:53;;;;;;;;;4.00;4.00;;;;;19.62;73.98;100889.59;5056727;28;45503;-72
2022/06/12 08:01:21;;;;;;;;;3.67;3.00;;;;;19.77;74.04;100857.78;5057254;28;45559;-73
2022/06/12 08:03:48;;;;;;;;;3.00;3.00;;;;;19.82;74.35;100731.41;5056232;28;45504;-72
2022/06/12 08:06:14;;;;;;;;;3.00;2.00;;;;;19.29;72.71;100539.09;5056312;28;45951;-71
2022/06/12 08:08:40;;;;;;;;;1.00;1.00;;;;;19.58;70.67;100543.34;5056517;28;45469;-72
2022/06/12 08:11:06;;;;;;;;;2.67;2.67;;;;;19.21;74.44;100536.50;5054990;28;45593;-72
2022/06/12 08:13:31;;;;;;;;;4.00;3.00;;;;;18.94;77.55;100544.59;5056377;28;45492;-73
2022/06/12 08:15:57;;;;;;;;;4.00;3.00;;;;;19.29;78.78;100600.03;5055875;28;45903;-73
2022/06/12 08:18:23;;;;;;;;;3.67;3.00;;;;;19.26;79.83;100632.72;5056152;28;45422;-72
2022/06/12 08:20:55;;;;;;;;;3.00;3.00;;;;;19.18;79.49;100649.50;5057063;28;45523;-72
2022/06/12 08:23:38;;;;;;;;;3.33;3.33;;;;;19.34;78.50;100692.69;5057810;28;45649;-74
2022/06/12 08:26:16;;;;;;;;;6.00;6.00;;;;;19.32;79.16;100723.63;5057746;28;45401;-74
2022/06/12 08:28:53;;;;;;;;;4.00;4.00;;;;;19.41;81.26;100697.09;5055880;28;45682;-72
2022/06/12 08:31:32;;;;;;;;;3.33;3.00;;;;;19.52;79.05;100703.25;5032030;27;45418;-74
2022/06/12 08:34:04;;;;;;;;;4.00;4.00;;;;;19.47;78.48;100678.53;5070124;28;45489;-73
2022/06/12 08:36:31;;;;;;;;;4.00;4.00;;;;;19.57;78.61;100652.88;5074741;28;45480;-73
2022/06/12 08:38:57;;;;;;;;;4.67;4.00;;;;;19.62;77.44;100600.75;5074956;28;45675;-73
2022/06/12 08:41:33;;;;;;;;;2.67;2.00;;;;;19.71;74.39;100552.09;5075297;28;45505;-72
2022/06/12 08:44:21;;;;;;;;;3.33;3.00;;;;;19.90;74.05;100560.81;5072612;28;45771;-73
2022/06/12 08:47:02;;;;;;;;;3.67;3.00;;;;;19.89;74.67;100586.44;5074985;28;46000;-71
2022/06/12 08:49:44;;;;;;;;;6.00;5.33;;;;;20.04;74.82;100623.44;5076488;28;45489;-71
2022/06/12 08:52:22;;;;;;;;;3.67;3.33;;;;;20.45;75.54;100672.63;5075839;27;45520;-71
2022/06/12 08:54:59;;;;;;;;;3.00;3.00;;;;;19.74;75.47;100541.50;5076264;28;45370;-70
2022/06/12 08:57:36;;;;;;;;;6.00;5.00;;;;;20.59;75.11;100661.94;5076304;28;45807;-71
2022/06/12 09:00:15;;;;;;;;;5.00;4.00;;;;;20.88;73.85;100670.50;5075460;28;45422;-71
2022/06/12 09:02:43;;;;;;;;;2.00;1.67;;;;;20.98;73.20;100683.63;5077006;28;45936;-72
2022/06/12 09:05:13;;;;;;;;;2.33;1.67;;;;;21.12;72.92;100698.56;5076694;28;45454;-72
2022/06/12 09:07:48;;;;;;;;;3.33;2.33;;;;;21.28;72.83;100700.13;5075602;28;45630;-72
2022/06/12 09:10:38;;;;;;;;;6.00;6.00;;;;;21.47;72.86;100706.16;5076286;27;45366;-72
2022/06/12 09:13:40;;;;;;;;;9.33;9.33;;;;;21.19;71.80;100631.19;5073941;27;45377;-75
2022/06/12 09:16:26;;;;;;;;;7.33;6.00;;;;;22.11;69.55;100727.47;5074570;27;45888;-72
2022/06/12 09:19:30;;;;;;;;;5.00;4.33;;;;;22.30;68.90;100701.47;5021724;28;46668;-72
2022/06/12 09:22:30;;;;;;;;;5.33;5.00;;;;;23.36;65.63;100791.09;5075568;28;45909;-72
2022/06/12 09:25:11;;;;;;;;;3.00;3.00;;;;;24.32;63.45;100819.38;5056610;28;45788;-72
2022/06/12 09:27:48;;;;;;;;;5.33;4.33;;;;;26.14;60.27;100833.41;5074080;28;45664;-73
2022/06/12 09:30:43;;;;;;;;;4.00;4.00;;;;;27.70;53.99;100829.22;5074342;28;45452;-72
2022/06/12 09:33:32;;;;;;;;;4.00;4.00;;;;;28.66;51.75;100802.25;5072489;28;45419;-72
2022/06/12 09:35:57;;;;;;;;;2.33;2.33;;;;;30.08;47.29;100821.16;5056880;28;45377;-72
2022/06/12 09:38:58;;;;;;;;;3.00;2.33;;;;;31.49;44.17;100827.69;5074607;28;45487;-73
2022/06/12 09:41:44;;;;;;;;;1.33;1.33;;;;;33.29;40.80;100841.94;5002909;28;46432;-71
2022/06/12 09:44:16;;;;;;;;;2.00;2.00;;;;;33.97;39.24;100845.91;5076502;28;45893;-72
2022/06/12 09:47:00;;;;;;;;;2.00;2.00;;;;;32.75;39.79;100846.03;5075380;28;45710;-72
2022/06/12 09:49:38;;;;;;;;;2.67;1.67;;;;;31.50;41.51;100856.44;5075970;28;45620;-72
2022/06/12 09:52:31;;;;;;;;;5.00;4.33;;;;;30.52;44.01;100847.84;5075126;28;46180;-73
2022/06/12 09:55:27;;;;;;;;;4.33;3.67;;;;;29.37;44.99;100837.81;5078780;27;45325;-72
2022/06/12 09:58:06;;;;;;;;;7.00;7.00;;;;;28.78;46.36;100836.69;5077363;27;45774;-72
2022/06/12 10:00:40;;;;;;;;;5.00;5.00;;;;;28.28;47.94;100843.13;5077733;27;45365;-71
2022/06/12 10:03:05;;;;;;;;;3.33;3.00;;;;;28.00;47.94;100861.25;5075807;28;46166;-73
2022/06/12 10:05:55;;;;;;;;;5.67;4.33;;;;;27.68;50.90;100868.66;5078257;28;45344;-72
2022/06/12 10:08:31;;;;;;;;;4.00;3.33;;;;;27.40;51.36;100855.31;5076082;28;45459;-72
2022/06/12 10:11:08;;;;;;;;;3.67;3.33;;;;;27.36;52.09;100857.25;5078541;28;45549;-72
2022/06/12 10:14:32;;;;;;;;;3.33;3.00;;;;;27.26;51.76;100866.56;5077814;28;45393;-71
2022/06/12 10:17:07;;;;;;;;;4.00;4.00;;;;;27.17;51.81;100867.69;5033025;28;45448;-71
2022/06/12 10:19:35;;;;;;;;;4.00;3.67;;;;;26.92;53.01;100852.44;5078157;28;45541;-71
2022/06/12 10:22:09;;;;;;;;;4.00;4.00;;;;;26.49;53.11;100802.00;5075495;28;45878;-73
2022/06/12 10:24:35;;;;;;;;;4.33;4.00;;;;;26.43;53.96;100837.88;5075210;28;45521;-72
2022/06/12 10:27:08;;;;;;;;;5.00;4.67;;;;;26.01;54.31;100781.19;5077879;27;45492;-72
2022/06/12 10:29:57;;;;;;;;;5.00;4.00;;;;;26.24;55.13;100840.25;5074141;28;45465;-72
2022/06/12 10:32:48;;;;;;;;;5.00;4.67;;;;;26.68;55.01;100856.78;5076650;28;45436;-73
2022/06/12 10:35:16;;;;;;;;;6.00;5.00;;;;;27.11;54.92;100854.50;5073751;28;45540;-72
2022/06/12 10:37:41;;;;;;;;;6.00;5.00;;;;;27.34;53.67;100849.25;5077976;28;45593;-72
2022/06/12 10:40:23;;;;;;;;;6.00;5.67;;;;;28.62;52.03;100862.47;5077566;28;45402;-74
2022/06/12 10:43:05;;;;;;;;;4.67;4.67;;;;;28.78;51.60;100851.97;5077214;28;45633;-72
2022/06/12 10:45:37;;;;;;;;;5.00;5.00;;;;;28.64;50.33;100828.31;5078803;28;45521;-72
2022/06/12 10:48:30;;;;;;;;;5.00;3.00;;;;;28.55;50.37;100786.56;5078618;28;45481;-72
2022/06/12 10:50:59;;;;;;;;;4.00;3.67;;;;;30.24;46.81;100805.16;5078581;28;45328;-71
2022/06/12 10:53:30;;;;;;;;;4.00;4.00;;;;;31.81;45.55;100805.31;5078811;28;45409;-71
2022/06/12 10:56:08;;;;;;;;;6.00;4.00;;;;;32.69;42.60;100776.97;5079069;28;46080;-72
2022/06/12 10:59:02;;;;;;;;;3.67;3.67;;;;;34.12;41.12;100773.53;5079587;28;45490;-72
2022/06/12 11:01:50;;;;;;;;;3.00;3.00;;;;;35.31;36.98;100777.34;5079323;28;45581;-72
2022/06/12 11:04:28;;;;;;;;;4.00;3.33;;;;;35.98;35.40;100768.09;5079119;28;45320;-72
2022/06/12 11:07:11;;;;;;;;;4.00;4.00;;;;;36.60;35.52;100775.28;5079003;28;45354;-73
2022/06/12 11:09:39;;;;;;;;;3.67;3.67;;;;;36.23;35.23;100797.06;5078837;28;45488;-72
2022/06/12 11:12:27;;;;;;;;;4.33;4.00;;;;;34.60;37.81;100814.72;5079359;27;45323;-73
2022/06/12 11:15:03;;;;;;;;;5.00;4.33;;;;;34.18;39.94;100807.56;5078623;28;45601;-72
2022/06/12 11:17:44;;;;;;;;;3.33;3.33;;;;;34.17;39.56;100808.53;5078553;27;45464;-73
2022/06/12 11:20:54;;;;;;;;;3.67;3.67;;;;;34.17;38.81;100803.13;5061241;28;45356;-73
2022/06/12 11:23:50;;;;;;;;;4.00;4.00;;;;;34.25;39.11;100809.78;5078739;28;45477;-73
2022/06/12 11:26:40;;;;;;;;;6.67;5.67;;;;;34.18;38.20;100805.75;5078747;28;45410;-71
2022/06/12 11:29:27;;;;;;;;;4.00;4.00;;;;;33.75;38.13;100807.59;5078414;28;45462;-72
2022/06/12 11:32:07;;;;;;;;;5.33;5.00;;;;;33.66;38.46;100804.50;5078746;28;45409;-71
2022/06/12 11:34:42;;;;;;;;;4.00;3.33;;;;;33.63;38.41;100799.25;5079043;28;45284;-71
2022/06/12 11:37:29;;;;;;;;;4.67;4.67;;;;;33.53;39.41;100797.19;5060917;28;45450;-72
2022/06/12 11:40:13;;;;;;;;;6.33;6.33;;;;;33.53;39.10;100779.09;5078995;28;45444;-72
2022/06/12 11:42:44;;;;;;;;;3.33;3.00;;;;;33.56;40.06;100773.47;5078784;28;45899;-72
2022/06/12 11:45:47;;;;;;;;;4.33;4.00;;;;;33.29;39.38;100771.53;5078830;28;45530;-72
2022/06/12 11:48:32;;;;;;;;;5.67;5.00;;;;;32.70;39.50;100709.22;5079263;28;45321;-72
2022/06/12 11:51:05;;;;;;;;;6.00;5.33;;;;;32.28;40.68;100699.09;5060515;28;45549;-72
2022/06/12 11:53:45;;;;;;;;;5.00;5.00;;;;;32.14;41.36;100724.22;5078178;28;45195;-72
2022/06/12 11:56:46;;;;;;;;;5.33;4.67;;;;;31.97;41.22;100724.28;5079690;27;45323;-72
2022/06/12 11:59:39;;;;;;;;;5.67;5.00;;;;;31.48;42.45;100704.47;5080073;27;45411;-72
2022/06/12 12:02:22;;;;;;;;;5.67;5.00;;;;;31.46;42.82;100725.28;5078205;28;45531;-73
2022/06/12 12:05:09;;;;;;;;;5.67;5.67;;;;;32.06;42.06;100726.50;5076770;28;45344;-72